createdAt,value
2022-12-27T00:02:17.074Z,48.28
2022-12-27T00:05:24.957Z,45.50
2022-12-27T00:08:29.585Z,46.25
2022-12-27T00:11:45.716Z,45.17
2022-12-27T00:14:50.503Z,44.85
2022-12-27T00:17:54.033Z,45.15
2022-12-27T00:20:59.268Z,48.20
2022-12-27T00:24:02.826Z,50.92
2022-12-27T00:27:06.147Z,48.65
2022-12-27T00:30:12.447Z,51.20
2022-12-27T00:33:15.909Z,49.92
2022-12-27T00:36:21.059Z,52.83
2022-12-27T00:39:24.547Z,49.45
2022-12-27T00:42:27.935Z,49.53
2022-12-27T00:45:32.669Z,48.08
2022-12-27T00:48:36.276Z,44.63
2022-12-27T00:51:39.629Z,43.80
2022-12-27T00:54:42.881Z,42.75
2022-12-27T00:57:46.513Z,42.75
2022-12-27T01:00:51.915Z,41.60
2022-12-27T01:03:55.381Z,40.30
2022-12-27T01:06:58.767Z,40.40
2022-12-27T01:10:02.085Z,44.97
2022-12-27T01:13:05.662Z,41.92
2022-12-27T01:16:13.083Z,45.60
2022-12-27T01:19:16.415Z,46.25
2022-12-27T01:22:19.712Z,44.72
2022-12-27T01:25:23.044Z,48.03
2022-12-27T01:28:26.404Z,47.03
2022-12-27T01:31:31.155Z,47.35
2022-12-27T01:34:35.260Z,47.75
2022-12-27T01:37:38.498Z,46.08
2022-12-27T01:40:41.936Z,45.17
2022-12-27T01:43:44.171Z,45.42
2022-12-27T01:46:48.933Z,49.60
2022-12-27T01:49:59.880Z,48.60
2022-12-27T01:53:12.709Z,48.03
2022-12-27T01:56:21.796Z,47.20
2022-12-27T01:59:26.338Z,47.67
2022-12-27T02:02:31.278Z,48.45
2022-12-27T02:05:35.441Z,47.80
2022-12-27T02:08:45.363Z,41.53
2022-12-27T02:11:58.616Z,46.53
2022-12-27T02:15:03.031Z,45.67
2022-12-27T02:18:07.968Z,47.88
2022-12-27T02:21:38.259Z,50.30
2022-12-27T02:25:02.984Z,51.60
2022-12-27T02:28:19.483Z,56.33
2022-12-27T02:31:28.473Z,57.10
2022-12-27T02:34:36.440Z,56.30
2022-12-27T02:37:44.541Z,48.90
2022-12-27T02:41:06.960Z,46.67
2022-12-27T02:44:27.752Z,46.67
2022-12-27T02:47:50.645Z,43.08
2022-12-27T02:51:23.942Z,46.10
2022-12-27T02:54:45.755Z,47.95
2022-12-27T02:57:59.892Z,47.90
2022-12-27T03:01:31.003Z,48.20
2022-12-27T03:04:51.667Z,47.65
2022-12-27T03:08:02.359Z,46.75
2022-12-27T03:11:23.209Z,47.25
2022-12-27T03:14:47.249Z,45.92
2022-12-27T03:17:56.841Z,45.97
2022-12-27T03:21:21.056Z,48.25
2022-12-27T03:24:46.430Z,45.15
2022-12-27T03:28:12.143Z,45.03
2022-12-27T03:31:39.884Z,45.40
2022-12-27T03:34:46.847Z,47.55
2022-12-27T03:38:05.033Z,48.90
2022-12-27T03:41:27.389Z,47.38
2022-12-27T03:44:30.616Z,51.17
2022-12-27T03:47:38.895Z,47.75
2022-12-27T03:50:47.507Z,47.22
2022-12-27T03:53:54.682Z,50.35
2022-12-27T03:56:59.638Z,50.97
2022-12-27T04:00:04.388Z,50.35
2022-12-27T04:03:16.642Z,51.33
2022-12-27T04:06:20.145Z,50.55
2022-12-27T04:09:42.791Z,49.25
2022-12-27T04:13:03.221Z,51.17
2022-12-27T04:16:24.612Z,49.72
2022-12-27T04:19:45.312Z,40.92
2022-12-27T04:23:06.095Z,44.53
2022-12-27T04:26:28.152Z,39.95
2022-12-27T04:29:48.504Z,39.70
2022-12-27T04:36:12.483Z,35.92
2022-12-27T04:39:16.146Z,32.65
2022-12-27T04:42:38.806Z,48.78
2022-12-27T04:45:59.455Z,34.28
2022-12-27T04:49:19.851Z,27.23
2022-12-27T04:55:44.601Z,25.85
2022-12-27T04:59:03.097Z,25.98
2022-12-27T05:02:06.543Z,26.40
2022-12-27T05:05:11.398Z,26.10
2022-12-27T05:08:33.196Z,27.60
2022-12-27T05:11:53.834Z,31.08
2022-12-27T05:18:01.369Z,23.13
2022-12-27T05:21:05.412Z,21.00
2022-12-27T05:24:26.711Z,20.63
2022-12-27T05:27:29.897Z,19.27
2022-12-27T05:30:35.593Z,18.38
2022-12-27T05:33:38.748Z,18.58
2022-12-27T05:36:42.017Z,15.45
2022-12-27T05:39:45.590Z,16.23
2022-12-27T05:42:48.884Z,13.50
2022-12-27T05:45:53.584Z,14.05
2022-12-27T05:48:56.741Z,11.68
2022-12-27T05:51:59.881Z,11.38
2022-12-27T05:55:03.124Z,9.60
2022-12-27T05:58:06.425Z,9.57
2022-12-27T06:01:12.585Z,12.68
2022-12-27T06:04:15.943Z,14.43
2022-12-27T06:07:19.202Z,16.58
2022-12-27T06:10:22.457Z,19.35
2022-12-27T06:13:25.670Z,18.73
2022-12-27T06:16:30.693Z,12.55
2022-12-27T06:19:34.011Z,8.20
2022-12-27T06:22:37.372Z,6.63
2022-12-27T06:25:40.623Z,6.35
2022-12-27T06:28:44.076Z,6.15
2022-12-27T06:31:48.793Z,6.80
2022-12-27T06:34:53.144Z,6.20
2022-12-27T06:37:56.449Z,8.55
2022-12-27T06:41:02.444Z,9.25
2022-12-27T06:44:06.781Z,10.85
2022-12-27T06:47:11.522Z,12.27
2022-12-27T06:50:14.776Z,20.65
2022-12-27T06:53:18.095Z,18.65
2022-12-27T06:56:23.149Z,26.98
2022-12-27T06:59:26.762Z,25.08
2022-12-27T07:02:31.533Z,21.50
2022-12-27T07:05:37.047Z,21.75
2022-12-27T07:08:40.498Z,15.90
2022-12-27T07:11:45.562Z,14.45
2022-12-27T07:14:49.114Z,19.05
2022-12-27T07:17:54.144Z,12.55
2022-12-27T07:20:58.524Z,9.40
2022-12-27T07:24:01.874Z,6.22
2022-12-27T07:27:05.633Z,8.35
2022-12-27T07:30:10.536Z,4.82
2022-12-27T07:33:15.321Z,4.35
2022-12-27T07:36:21.676Z,4.13
2022-12-27T07:39:24.983Z,23.67
2022-12-27T07:42:29.944Z,4.35
2022-12-27T07:45:34.047Z,3.90
2022-12-27T07:48:39.321Z,3.35
2022-12-27T07:51:42.651Z,3.33
2022-12-27T07:54:45.919Z,3.65
2022-12-27T07:57:49.246Z,3.25
2022-12-27T08:00:53.682Z,3.65
2022-12-27T08:03:58.367Z,3.20
2022-12-27T08:07:05.340Z,3.97
2022-12-27T08:10:09.529Z,4.32
2022-12-27T08:13:12.866Z,3.50
2022-12-27T08:16:20.702Z,3.65
2022-12-27T08:19:25.502Z,3.63
2022-12-27T08:22:28.731Z,4.78
2022-12-27T08:25:32.191Z,3.67
2022-12-27T08:28:36.103Z,3.67
2022-12-27T08:31:39.739Z,3.70
2022-12-27T08:34:44.459Z,3.30
2022-12-27T08:37:48.532Z,3.72
2022-12-27T08:40:51.972Z,3.42
2022-12-27T08:43:55.459Z,3.92
2022-12-27T08:46:59.544Z,4.63
2022-12-27T08:50:04.464Z,8.93
2022-12-27T08:53:07.876Z,3.97
2022-12-27T08:56:12.968Z,3.53
2022-12-27T08:59:16.510Z,11.60
2022-12-27T09:02:20.104Z,3.63
2022-12-27T09:05:27.731Z,3.80
2022-12-27T09:08:31.223Z,4.07
2022-12-27T09:11:36.075Z,4.95
2022-12-27T09:14:39.630Z,3.65
2022-12-27T09:17:43.068Z,4.10
2022-12-27T09:20:47.800Z,3.95
2022-12-27T09:23:52.288Z,3.90
2022-12-27T09:26:56.073Z,4.65
2022-12-27T09:29:59.668Z,4.88
2022-12-27T09:33:03.059Z,3.70
2022-12-27T09:36:11.577Z,5.03
2022-12-27T09:39:17.184Z,4.63
2022-12-27T09:42:50.793Z,4.50
2022-12-27T09:45:57.840Z,4.40
2022-12-27T09:49:01.588Z,4.40
2022-12-27T09:52:13.167Z,5.85
2022-12-27T09:55:21.897Z,5.07
2022-12-27T09:58:38.205Z,12.63
2022-12-27T10:01:42.411Z,4.50
2022-12-27T10:05:18.401Z,4.68
2022-12-27T10:08:26.345Z,5.53
2022-12-27T10:14:56.124Z,7.32
2022-12-27T10:18:13.032Z,6.70
2022-12-27T10:21:22.188Z,5.60
2022-12-27T10:24:36.357Z,6.43
2022-12-27T10:27:40.630Z,5.72
2022-12-27T10:30:44.600Z,5.20
2022-12-27T10:33:50.283Z,5.57
2022-12-27T10:36:54.773Z,6.45
2022-12-27T10:40:06.405Z,6.32
2022-12-27T10:43:17.871Z,6.70
2022-12-27T10:46:30.724Z,5.65
2022-12-27T10:49:36.875Z,5.90
2022-12-27T10:52:40.361Z,4.97
2022-12-27T10:55:45.847Z,5.18
2022-12-27T10:58:58.233Z,6.35
2022-12-27T11:02:18.733Z,5.90
2022-12-27T11:05:24.252Z,5.40
2022-12-27T11:08:30.687Z,5.65
2022-12-27T11:11:35.436Z,6.20
2022-12-27T11:14:39.257Z,5.95
2022-12-27T11:17:46.122Z,5.43
2022-12-27T11:20:51.990Z,5.70
2022-12-27T11:23:58.892Z,5.50
2022-12-27T11:27:04.204Z,6.90
2022-12-27T11:30:21.402Z,6.50
2022-12-27T11:33:28.039Z,6.95
2022-12-27T11:36:35.563Z,7.25
2022-12-27T11:39:41.307Z,11.30
2022-12-27T11:42:48.047Z,7.60
2022-12-27T11:45:53.280Z,7.45
2022-12-27T11:48:58.508Z,6.88
2022-12-27T11:52:41.834Z,7.32
2022-12-27T11:56:04.440Z,10.65
2022-12-27T11:59:49.300Z,12.55
2022-12-27T12:03:17.638Z,7.70
2022-12-27T12:06:34.633Z,8.18
2022-12-27T12:10:02.927Z,8.60
2022-12-27T12:13:21.258Z,7.75
2022-12-27T12:16:51.456Z,7.85
2022-12-27T12:20:13.743Z,8.38
2022-12-27T12:23:28.325Z,9.10
2022-12-27T12:26:36.019Z,8.73
2022-12-27T12:30:04.324Z,8.07
2022-12-27T12:33:40.687Z,8.38
2022-12-27T12:37:09.200Z,8.13
2022-12-27T12:40:33.986Z,7.80
2022-12-27T12:44:10.495Z,6.50
2022-12-27T12:47:33.958Z,7.15
2022-12-27T12:51:01.056Z,6.75
2022-12-27T12:54:18.698Z,6.60
2022-12-27T12:57:38.148Z,8.77
2022-12-27T13:00:57.861Z,7.00
2022-12-27T13:04:24.231Z,6.45
2022-12-27T13:07:40.889Z,7.28
2022-12-27T13:11:22.360Z,6.97
2022-12-27T13:15:05.285Z,7.30
2022-12-27T13:18:29.978Z,7.95
2022-12-27T13:21:53.747Z,7.68
2022-12-27T13:25:17.807Z,7.63
2022-12-27T13:28:38.439Z,6.90
2022-12-27T13:31:49.175Z,7.70
2022-12-27T13:35:04.480Z,6.95
2022-12-27T13:38:19.620Z,7.35
2022-12-27T13:41:32.950Z,7.07
2022-12-27T13:45:03.511Z,8.55
2022-12-27T13:51:44.443Z,5.70
2022-12-27T13:55:15.473Z,7.47
2022-12-27T13:59:18.632Z,6.72
2022-12-27T14:03:02.511Z,7.15
2022-12-27T14:06:35.606Z,7.88
2022-12-27T14:09:59.051Z,6.93
2022-12-27T14:13:03.763Z,7.03
2022-12-27T14:16:28.154Z,6.55
2022-12-27T14:20:03.690Z,6.93
2022-12-27T14:23:35.466Z,6.47
2022-12-27T14:27:06.666Z,7.15
2022-12-27T14:30:38.795Z,6.90
2022-12-27T14:34:16.370Z,7.43
2022-12-27T14:38:08.465Z,7.55
2022-12-27T14:42:12.073Z,7.00
2022-12-27T14:46:05.615Z,8.15
2022-12-27T14:49:32.357Z,7.85
2022-12-27T14:53:00.708Z,7.88
2022-12-27T14:56:22.505Z,8.63
2022-12-27T14:59:40.167Z,9.18
2022-12-27T15:03:00.805Z,9.15
2022-12-27T15:06:16.851Z,8.75
2022-12-27T15:09:34.051Z,9.05
2022-12-27T15:12:45.895Z,9.38
2022-12-27T15:15:58.264Z,8.85
2022-12-27T15:19:26.291Z,9.43
2022-12-27T15:22:44.139Z,14.38
2022-12-27T15:26:03.925Z,20.42
2022-12-27T15:29:21.071Z,19.02
2022-12-27T15:32:35.822Z,17.10
2022-12-27T15:35:51.007Z,14.45
2022-12-27T15:38:55.612Z,13.27
2022-12-27T15:42:08.858Z,13.15
2022-12-27T15:45:29.089Z,12.07
2022-12-27T15:49:02.179Z,12.25
2022-12-27T15:52:13.874Z,12.30
2022-12-27T15:55:25.899Z,11.40
2022-12-27T15:58:29.978Z,11.80
2022-12-27T16:01:36.326Z,12.82
2022-12-27T16:04:53.762Z,13.05
2022-12-27T16:08:41.882Z,16.60
2022-12-27T16:12:02.070Z,15.85
2022-12-27T16:15:39.819Z,14.32
2022-12-27T16:19:12.983Z,11.60
2022-12-27T16:22:26.301Z,10.05
2022-12-27T16:25:33.844Z,11.02
2022-12-27T16:28:39.348Z,10.48
2022-12-27T16:31:49.056Z,9.30
2022-12-27T16:34:55.478Z,10.07
2022-12-27T16:38:03.820Z,9.18
2022-12-27T16:41:16.621Z,9.80
2022-12-27T16:44:36.238Z,10.63
2022-12-27T16:48:07.483Z,9.88
2022-12-27T16:51:20.496Z,10.40
2022-12-27T16:54:32.602Z,12.77
2022-12-27T16:57:42.222Z,11.68
2022-12-27T17:00:46.907Z,8.15
2022-12-27T17:03:50.902Z,11.63
2022-12-27T17:06:58.992Z,10.82
2022-12-27T17:10:38.690Z,10.77
2022-12-27T17:13:47.984Z,10.05
2022-12-27T17:16:59.320Z,10.52
2022-12-27T17:20:16.067Z,11.35
2022-12-27T17:23:21.534Z,11.60
2022-12-27T17:26:54.513Z,12.30
2022-12-27T17:30:17.575Z,12.15
2022-12-27T17:33:36.671Z,12.65
2022-12-27T17:36:51.243Z,17.73
2022-12-27T17:40:12.787Z,15.23
2022-12-27T17:43:49.613Z,13.82
2022-12-27T17:46:59.519Z,29.35
2022-12-27T17:50:05.009Z,30.58
2022-12-27T17:53:35.452Z,28.25
2022-12-27T18:00:02.226Z,12.35
2022-12-27T18:03:17.750Z,10.90
2022-12-27T18:06:21.684Z,12.60
2022-12-27T18:09:37.340Z,12.52
2022-12-27T18:12:43.317Z,15.88
2022-12-27T18:15:50.476Z,15.25
2022-12-27T18:19:00.096Z,10.77
2022-12-27T18:22:04.886Z,12.07
2022-12-27T18:25:25.201Z,11.57
2022-12-27T18:28:33.728Z,11.15
2022-12-27T18:31:48.800Z,12.60
2022-12-27T18:34:57.703Z,14.15
2022-12-27T18:38:02.874Z,15.38
2022-12-27T18:41:10.579Z,16.15
2022-12-27T18:44:26.482Z,14.07
2022-12-27T18:47:36.177Z,13.68
2022-12-27T18:50:43.075Z,12.93
2022-12-27T18:53:46.858Z,12.13
2022-12-27T18:56:53.729Z,11.38
2022-12-27T19:00:03.374Z,11.77
2022-12-27T19:03:18.900Z,9.40
2022-12-27T19:06:22.524Z,14.05
2022-12-27T19:09:33.256Z,12.63
2022-12-27T19:12:39.686Z,11.50
2022-12-27T19:15:45.206Z,12.52
2022-12-27T19:18:54.680Z,14.13
2022-12-27T19:22:00.499Z,16.85
2022-12-27T19:25:08.361Z,14.35
2022-12-27T19:28:26.863Z,23.00
2022-12-27T19:31:32.652Z,37.00
2022-12-27T19:34:44.247Z,18.73
2022-12-27T19:37:47.917Z,15.00
2022-12-27T19:40:58.074Z,31.63
2022-12-27T19:44:08.202Z,24.10
2022-12-27T19:47:13.138Z,13.07
2022-12-27T19:50:18.667Z,12.10
2022-12-27T19:53:29.613Z,17.20
2022-12-27T19:56:35.255Z,13.32
2022-12-27T19:59:38.885Z,17.17
2022-12-27T20:02:42.345Z,18.08
2022-12-27T20:06:13.000Z,12.48
2022-12-27T20:09:17.143Z,11.85
2022-12-27T20:12:22.380Z,10.68
2022-12-27T20:15:28.210Z,31.95
2022-12-27T20:18:31.942Z,42.03
2022-12-27T20:21:38.259Z,15.98
2022-12-27T20:24:42.050Z,53.58
2022-12-27T20:27:45.854Z,39.08
2022-12-27T20:30:50.542Z,14.00
2022-12-27T20:33:58.794Z,10.63
2022-12-27T20:37:07.275Z,10.85
2022-12-27T20:40:12.144Z,11.45
2022-12-27T20:43:17.331Z,18.42
2022-12-27T20:46:22.666Z,10.88
2022-12-27T20:49:28.329Z,11.85
2022-12-27T20:52:35.373Z,10.07
2022-12-27T20:55:38.906Z,10.25
2022-12-27T20:58:43.619Z,10.00
2022-12-27T21:01:51.589Z,15.60
2022-12-27T21:04:58.477Z,48.25
2022-12-27T21:08:04.149Z,15.77
2022-12-27T21:11:11.088Z,11.52
2022-12-27T21:14:15.020Z,10.48
2022-12-27T21:17:20.440Z,10.32
2022-12-27T21:20:29.860Z,10.75
2022-12-27T21:23:37.097Z,7.85
2022-12-27T21:26:42.148Z,10.32
2022-12-27T21:29:50.360Z,10.10
2022-12-27T21:32:56.301Z,10.50
2022-12-27T21:36:09.243Z,12.15
2022-12-27T21:39:18.882Z,10.55
2022-12-27T21:42:26.454Z,10.73
2022-12-27T21:45:32.981Z,9.95
2022-12-27T21:48:39.366Z,10.35
2022-12-27T21:51:47.597Z,11.13
2022-12-27T21:54:52.945Z,17.73
2022-12-27T21:58:00.133Z,19.67
2022-12-27T22:01:08.660Z,12.70
2022-12-27T22:04:15.553Z,11.18
2022-12-27T22:07:22.908Z,9.48
2022-12-27T22:10:30.800Z,9.98
2022-12-27T22:13:36.125Z,8.35
2022-12-27T22:16:42.400Z,9.77
2022-12-27T22:19:50.745Z,8.60
2022-12-27T22:22:54.494Z,9.77
2022-12-27T22:25:59.790Z,8.68
2022-12-27T22:29:03.246Z,8.40
2022-12-27T22:32:06.990Z,8.98
2022-12-27T22:35:12.081Z,8.77
2022-12-27T22:38:15.545Z,8.88
2022-12-27T22:41:26.095Z,8.60
2022-12-27T22:44:29.404Z,8.50
2022-12-27T22:47:32.794Z,8.90
2022-12-27T22:50:37.673Z,8.07
2022-12-27T22:53:41.460Z,9.40
2022-12-27T22:56:46.591Z,8.18
2022-12-27T22:59:50.207Z,8.63
2022-12-27T23:02:54.664Z,7.93
2022-12-27T23:05:59.443Z,7.80
2022-12-27T23:09:03.790Z,8.82
2022-12-27T23:12:08.573Z,8.82
2022-12-27T23:15:12.544Z,9.07
2022-12-27T23:18:15.871Z,8.20
2022-12-27T23:21:24.366Z,7.88
2022-12-27T23:24:28.001Z,8.82
2022-12-27T23:27:32.803Z,8.23
2022-12-27T23:30:36.152Z,8.70
2022-12-27T23:33:40.560Z,8.02
2022-12-27T23:36:44.467Z,8.35
2022-12-27T23:39:47.899Z,8.05
2022-12-27T23:42:52.593Z,8.23
2022-12-27T23:45:55.793Z,7.30
2022-12-27T23:49:00.935Z,8.63
2022-12-27T23:52:04.440Z,8.27
2022-12-27T23:55:08.635Z,8.20
2022-12-27T23:58:13.936Z,8.48
